Allison Park, Pennsylvania
Current Conditions -  °F | °C
As of 9:51 PM on Wednesday 26 Nov 2014 (Local Time) from KPIT Reporting Station
Haze Haze  
Wind Chill: 33°   Ceiling: 800
Heat Index: 33°   Visibility: 3mi
Dew Point: 32°   Wind: 0mph
Humidity: 96%   Direction: NA
Pressure: 30"   Gusts: NA
Location:  40.56°N, 79.96°W
Report Text: KPIT 270251Z 00000KT 3SM BR BKN008 OVC037 01/00 A3000 RMK AO2 SLP178 T00060000 56002
Loading
Personal Weather Stations






























Interactive Weather Map New forecast layout! Learn more

10-Day Weather Forecast

Advertisements
Track Severe Weather on mobile